sensor_id;sensor_type;location;lat;lon;timestamp;temperature;humidity
75210;DHT22;63796;53.136;14.882;2023-12-22T00:00:02;6.40;99.90
75210;DHT22;63796;53.136;14.882;2023-12-22T00:02:32;6.40;99.90
75210;DHT22;63796;53.136;14.882;2023-12-22T00:05:00;6.40;99.90
75210;DHT22;63796;53.136;14.882;2023-12-22T00:07:27;6.40;99.90
75210;DHT22;63796;53.136;14.882;2023-12-22T00:09:55;6.40;99.90
75210;DHT22;63796;53.136;14.882;2023-12-22T00:12:22;6.40;99.90
75210;DHT22;63796;53.136;14.882;2023-12-22T00:14:50;6.40;99.90
75210;DHT22;63796;53.136;14.882;2023-12-22T00:17:17;6.40;99.90
75210;DHT22;63796;53.136;14.882;2023-12-22T00:19:44;6.40;99.90
75210;DHT22;63796;53.136;14.882;2023-12-22T00:22:12;6.40;99.90
75210;DHT22;63796;53.136;14.882;2023-12-22T00:24:39;6.40;99.90
75210;DHT22;63796;53.136;14.882;2023-12-22T00:27:07;6.30;99.90
75210;DHT22;63796;53.136;14.882;2023-12-22T00:29:34;6.30;99.90
75210;DHT22;63796;53.136;14.882;2023-12-22T00:32:04;6.40;99.90
75210;DHT22;63796;53.136;14.882;2023-12-22T00:34:32;6.30;99.90
75210;DHT22;63796;53.136;14.882;2023-12-22T00:36:59;6.40;99.90
75210;DHT22;63796;53.136;14.882;2023-12-22T00:39:27;6.30;99.90
75210;DHT22;63796;53.136;14.882;2023-12-22T00:41:55;6.30;99.90
75210;DHT22;63796;53.136;14.882;2023-12-22T00:44:22;6.30;99.90
75210;DHT22;63796;53.136;14.882;2023-12-22T00:46:50;6.30;99.90
75210;DHT22;63796;53.136;14.882;2023-12-22T00:49:17;6.30;99.90
75210;DHT22;63796;53.136;14.882;2023-12-22T00:51:45;6.30;99.90
75210;DHT22;63796;53.136;14.882;2023-12-22T00:54:12;6.30;99.90
75210;DHT22;63796;53.136;14.882;2023-12-22T00:56:40;6.30;99.90
75210;DHT22;63796;53.136;14.882;2023-12-22T00:59:07;6.30;99.90
75210;DHT22;63796;53.136;14.882;2023-12-22T01:01:38;6.30;99.90
75210;DHT22;63796;53.136;14.882;2023-12-22T01:04:05;6.30;99.90
75210;DHT22;63796;53.136;14.882;2023-12-22T01:06:36;6.30;99.90
75210;DHT22;63796;53.136;14.882;2023-12-22T01:09:05;6.20;99.90
75210;DHT22;63796;53.136;14.882;2023-12-22T01:11:32;6.20;99.90
75210;DHT22;63796;53.136;14.882;2023-12-22T01:13:59;6.20;99.90
75210;DHT22;63796;53.136;14.882;2023-12-22T01:16:27;6.20;99.90
75210;DHT22;63796;53.136;14.882;2023-12-22T01:18:55;6.20;99.90
75210;DHT22;63796;53.136;14.882;2023-12-22T01:21:22;6.20;99.90
75210;DHT22;63796;53.136;14.882;2023-12-22T01:23:49;6.20;99.90
75210;DHT22;63796;53.136;14.882;2023-12-22T01:26:18;6.10;99.90
75210;DHT22;63796;53.136;14.882;2023-12-22T01:28:45;6.10;99.90
75210;DHT22;63796;53.136;14.882;2023-12-22T01:31:13;6.10;99.90
75210;DHT22;63796;53.136;14.882;2023-12-22T01:33:40;6.10;99.90
75210;DHT22;63796;53.136;14.882;2023-12-22T01:36:08;6.10;99.90
75210;DHT22;63796;53.136;14.882;2023-12-22T01:38:35;6.10;99.90
75210;DHT22;63796;53.136;14.882;2023-12-22T01:41:02;6.10;99.90
75210;DHT22;63796;53.136;14.882;2023-12-22T01:43:30;6.00;99.90
75210;DHT22;63796;53.136;14.882;2023-12-22T01:45:58;6.00;99.90
75210;DHT22;63796;53.136;14.882;2023-12-22T01:48:26;6.00;99.90
75210;DHT22;63796;53.136;14.882;2023-12-22T01:50:56;6.00;99.90
75210;DHT22;63796;53.136;14.882;2023-12-22T01:53:26;5.90;99.90
75210;DHT22;63796;53.136;14.882;2023-12-22T01:55:54;5.80;99.90
75210;DHT22;63796;53.136;14.882;2023-12-22T01:58:23;5.80;99.90
75210;DHT22;63796;53.136;14.882;2023-12-22T02:00:52;5.70;99.90
75210;DHT22;63796;53.136;14.882;2023-12-22T02:03:20;5.70;99.90
75210;DHT22;63796;53.136;14.882;2023-12-22T02:05:48;5.60;99.90
75210;DHT22;63796;53.136;14.882;2023-12-22T02:08:19;5.50;99.90
75210;DHT22;63796;53.136;14.882;2023-12-22T02:10:50;5.50;99.90
75210;DHT22;63796;53.136;14.882;2023-12-22T02:13:17;5.40;99.90
75210;DHT22;63796;53.136;14.882;2023-12-22T02:15:45;5.40;99.90
75210;DHT22;63796;53.136;14.882;2023-12-22T02:18:19;5.40;99.90
75210;DHT22;63796;53.136;14.882;2023-12-22T02:20:52;5.40;99.90
75210;DHT22;63796;53.136;14.882;2023-12-22T02:23:20;5.50;99.90
75210;DHT22;63796;53.136;14.882;2023-12-22T02:25:49;5.60;99.90
75210;DHT22;63796;53.136;14.882;2023-12-22T02:28:19;5.60;99.90
75210;DHT22;63796;53.136;14.882;2023-12-22T02:30:55;5.60;99.90
75210;DHT22;63796;53.136;14.882;2023-12-22T02:33:26;5.60;99.90
75210;DHT22;63796;53.136;14.882;2023-12-22T02:36:02;5.60;99.90
75210;DHT22;63796;53.136;14.882;2023-12-22T02:38:31;5.60;99.90
75210;DHT22;63796;53.136;14.882;2023-12-22T02:40:59;5.70;99.90
75210;DHT22;63796;53.136;14.882;2023-12-22T02:43:27;5.70;99.90
75210;DHT22;63796;53.136;14.882;2023-12-22T02:45:55;5.70;99.90
75210;DHT22;63796;53.136;14.882;2023-12-22T02:48:23;5.60;99.90
75210;DHT22;63796;53.136;14.882;2023-12-22T02:50:50;5.60;99.90
75210;DHT22;63796;53.136;14.882;2023-12-22T02:53:18;5.60;99.90
75210;DHT22;63796;53.136;14.882;2023-12-22T02:55:45;5.50;99.90
75210;DHT22;63796;53.136;14.882;2023-12-22T02:58:12;5.30;99.90
75210;DHT22;63796;53.136;14.882;2023-12-22T03:00:40;5.20;99.90
75210;DHT22;63796;53.136;14.882;2023-12-22T03:03:07;5.20;99.90
75210;DHT22;63796;53.136;14.882;2023-12-22T03:05:35;5.10;99.90
75210;DHT22;63796;53.136;14.882;2023-12-22T03:08:02;5.00;99.90
75210;DHT22;63796;53.136;14.882;2023-12-22T03:13:08;5.00;99.90
75210;DHT22;63796;53.136;14.882;2023-12-22T03:15:35;4.90;99.90
75210;DHT22;63796;53.136;14.882;2023-12-22T03:18:02;4.90;99.90
75210;DHT22;63796;53.136;14.882;2023-12-22T03:20:30;4.90;99.90
75210;DHT22;63796;53.136;14.882;2023-12-22T03:22:57;4.90;99.90
75210;DHT22;63796;53.136;14.882;2023-12-22T03:25:25;4.90;99.90
75210;DHT22;63796;53.136;14.882;2023-12-22T03:27:52;4.90;99.90
75210;DHT22;63796;53.136;14.882;2023-12-22T03:30:19;4.80;99.90
75210;DHT22;63796;53.136;14.882;2023-12-22T03:32:47;4.80;99.90
75210;DHT22;63796;53.136;14.882;2023-12-22T03:35:14;4.80;99.90
75210;DHT22;63796;53.136;14.882;2023-12-22T03:37:41;4.80;99.90
75210;DHT22;63796;53.136;14.882;2023-12-22T03:40:09;4.80;99.90
75210;DHT22;63796;53.136;14.882;2023-12-22T03:42:36;4.80;99.90
75210;DHT22;63796;53.136;14.882;2023-12-22T03:45:04;4.70;99.90
75210;DHT22;63796;53.136;14.882;2023-12-22T03:47:32;4.70;99.90
75210;DHT22;63796;53.136;14.882;2023-12-22T03:49:59;4.80;99.90
75210;DHT22;63796;53.136;14.882;2023-12-22T03:52:27;4.70;99.90
75210;DHT22;63796;53.136;14.882;2023-12-22T03:54:54;4.70;99.90
75210;DHT22;63796;53.136;14.882;2023-12-22T03:57:22;4.70;99.90
75210;DHT22;63796;53.136;14.882;2023-12-22T03:59:49;4.80;99.90
75210;DHT22;63796;53.136;14.882;2023-12-22T04:02:16;4.80;99.90
75210;DHT22;63796;53.136;14.882;2023-12-22T04:04:43;4.80;99.90
75210;DHT22;63796;53.136;14.882;2023-12-22T04:07:11;4.80;99.90
75210;DHT22;63796;53.136;14.882;2023-12-22T04:09:39;4.80;99.90
75210;DHT22;63796;53.136;14.882;2023-12-22T04:12:06;4.80;99.90
75210;DHT22;63796;53.136;14.882;2023-12-22T04:14:34;4.80;99.90
75210;DHT22;63796;53.136;14.882;2023-12-22T04:17:01;4.90;99.90
75210;DHT22;63796;53.136;14.882;2023-12-22T04:19:28;4.90;99.90
75210;DHT22;63796;53.136;14.882;2023-12-22T04:21:56;4.90;99.90
75210;DHT22;63796;53.136;14.882;2023-12-22T04:24:23;4.90;99.90
75210;DHT22;63796;53.136;14.882;2023-12-22T04:26:51;4.90;99.90
75210;DHT22;63796;53.136;14.882;2023-12-22T04:29:18;5.00;99.90
75210;DHT22;63796;53.136;14.882;2023-12-22T04:31:45;5.00;99.90
75210;DHT22;63796;53.136;14.882;2023-12-22T04:34:13;5.00;99.90
75210;DHT22;63796;53.136;14.882;2023-12-22T04:36:42;5.10;99.90
75210;DHT22;63796;53.136;14.882;2023-12-22T04:39:10;5.10;99.90
75210;DHT22;63796;53.136;14.882;2023-12-22T04:41:38;5.10;99.90
75210;DHT22;63796;53.136;14.882;2023-12-22T04:44:05;4.90;99.90
75210;DHT22;63796;53.136;14.882;2023-12-22T04:46:33;4.80;99.90
75210;DHT22;63796;53.136;14.882;2023-12-22T04:49:00;4.90;99.90
75210;DHT22;63796;53.136;14.882;2023-12-22T04:51:29;5.00;99.90
75210;DHT22;63796;53.136;14.882;2023-12-22T04:53:56;5.00;99.90
75210;DHT22;63796;53.136;14.882;2023-12-22T04:56:23;5.10;99.90
75210;DHT22;63796;53.136;14.882;2023-12-22T04:58:51;5.10;99.90
75210;DHT22;63796;53.136;14.882;2023-12-22T05:01:18;4.90;99.90
75210;DHT22;63796;53.136;14.882;2023-12-22T05:03:46;4.80;99.90
75210;DHT22;63796;53.136;14.882;2023-12-22T05:06:13;4.70;99.90
75210;DHT22;63796;53.136;14.882;2023-12-22T05:08:41;4.60;99.90
75210;DHT22;63796;53.136;14.882;2023-12-22T05:11:08;4.50;99.90
75210;DHT22;63796;53.136;14.882;2023-12-22T05:13:35;4.50;99.90
75210;DHT22;63796;53.136;14.882;2023-12-22T05:16:03;4.50;99.90
75210;DHT22;63796;53.136;14.882;2023-12-22T05:18:33;4.50;99.90
75210;DHT22;63796;53.136;14.882;2023-12-22T05:21:01;4.50;99.90
75210;DHT22;63796;53.136;14.882;2023-12-22T05:23:28;4.50;99.90
75210;DHT22;63796;53.136;14.882;2023-12-22T05:25:56;4.50;99.90
75210;DHT22;63796;53.136;14.882;2023-12-22T05:28:23;4.50;99.90
75210;DHT22;63796;53.136;14.882;2023-12-22T05:30:51;4.50;99.90
75210;DHT22;63796;53.136;14.882;2023-12-22T05:33:18;4.60;99.90
75210;DHT22;63796;53.136;14.882;2023-12-22T05:35:45;4.60;99.90
75210;DHT22;63796;53.136;14.882;2023-12-22T05:38:13;4.70;99.90
75210;DHT22;63796;53.136;14.882;2023-12-22T05:40:40;4.70;99.90
75210;DHT22;63796;53.136;14.882;2023-12-22T05:43:08;4.70;99.90
75210;DHT22;63796;53.136;14.882;2023-12-22T05:45:36;4.80;99.90
75210;DHT22;63796;53.136;14.882;2023-12-22T05:48:03;4.70;99.90
75210;DHT22;63796;53.136;14.882;2023-12-22T05:50:31;4.70;99.90
75210;DHT22;63796;53.136;14.882;2023-12-22T05:52:59;4.80;99.90
75210;DHT22;63796;53.136;14.882;2023-12-22T05:55:26;4.70;99.90
75210;DHT22;63796;53.136;14.882;2023-12-22T05:57:54;4.70;99.90
75210;DHT22;63796;53.136;14.882;2023-12-22T06:00:22;4.60;99.90
75210;DHT22;63796;53.136;14.882;2023-12-22T06:02:49;4.60;99.90
75210;DHT22;63796;53.136;14.882;2023-12-22T06:05:17;4.40;99.90
75210;DHT22;63796;53.136;14.882;2023-12-22T06:07:44;4.40;99.90
75210;DHT22;63796;53.136;14.882;2023-12-22T06:10:12;4.40;99.90
75210;DHT22;63796;53.136;14.882;2023-12-22T06:12:39;4.40;99.90
75210;DHT22;63796;53.136;14.882;2023-12-22T06:15:07;4.30;99.90
75210;DHT22;63796;53.136;14.882;2023-12-22T06:17:34;4.30;99.90
75210;DHT22;63796;53.136;14.882;2023-12-22T06:20:02;4.30;99.90
75210;DHT22;63796;53.136;14.882;2023-12-22T06:22:29;4.20;99.90
75210;DHT22;63796;53.136;14.882;2023-12-22T06:24:57;4.10;99.90
75210;DHT22;63796;53.136;14.882;2023-12-22T06:27:24;4.10;99.90
75210;DHT22;63796;53.136;14.882;2023-12-22T06:29:52;3.90;99.90
75210;DHT22;63796;53.136;14.882;2023-12-22T06:32:19;3.90;99.90
75210;DHT22;63796;53.136;14.882;2023-12-22T06:34:46;3.80;99.90
75210;DHT22;63796;53.136;14.882;2023-12-22T06:37:14;3.70;99.90
75210;DHT22;63796;53.136;14.882;2023-12-22T06:39:42;3.80;99.90
75210;DHT22;63796;53.136;14.882;2023-12-22T06:42:09;3.80;99.90
75210;DHT22;63796;53.136;14.882;2023-12-22T06:44:41;3.90;99.90
75210;DHT22;63796;53.136;14.882;2023-12-22T06:47:10;4.00;99.90
75210;DHT22;63796;53.136;14.882;2023-12-22T06:49:38;4.00;99.90
75210;DHT22;63796;53.136;14.882;2023-12-22T06:52:05;4.00;99.90
75210;DHT22;63796;53.136;14.882;2023-12-22T06:54:34;3.90;99.90
75210;DHT22;63796;53.136;14.882;2023-12-22T06:57:01;4.00;99.90
75210;DHT22;63796;53.136;14.882;2023-12-22T06:59:28;4.00;99.90
75210;DHT22;63796;53.136;14.882;2023-12-22T07:01:58;4.00;99.90
75210;DHT22;63796;53.136;14.882;2023-12-22T07:07:50;4.00;99.90
75210;DHT22;63796;53.136;14.882;2023-12-22T07:10:18;4.00;99.90
75210;DHT22;63796;53.136;14.882;2023-12-22T07:12:46;4.10;99.90
75210;DHT22;63796;53.136;14.882;2023-12-22T07:15:13;4.20;99.90
75210;DHT22;63796;53.136;14.882;2023-12-22T07:17:40;4.20;99.90
75210;DHT22;63796;53.136;14.882;2023-12-22T07:20:08;4.20;99.90
75210;DHT22;63796;53.136;14.882;2023-12-22T07:22:36;4.10;99.90
75210;DHT22;63796;53.136;14.882;2023-12-22T07:25:05;4.10;99.90
75210;DHT22;63796;53.136;14.882;2023-12-22T07:27:35;4.00;99.90
75210;DHT22;63796;53.136;14.882;2023-12-22T07:30:02;4.10;99.90
75210;DHT22;63796;53.136;14.882;2023-12-22T07:32:32;4.20;99.90
75210;DHT22;63796;53.136;14.882;2023-12-22T07:34:59;4.20;99.90
75210;DHT22;63796;53.136;14.882;2023-12-22T07:37:27;4.20;99.90
75210;DHT22;63796;53.136;14.882;2023-12-22T07:39:55;4.20;99.90
75210;DHT22;63796;53.136;14.882;2023-12-22T07:42:24;4.40;99.90
75210;DHT22;63796;53.136;14.882;2023-12-22T07:44:52;4.40;99.90
75210;DHT22;63796;53.136;14.882;2023-12-22T07:47:19;4.40;99.90
75210;DHT22;63796;53.136;14.882;2023-12-22T07:49:47;4.50;99.90
75210;DHT22;63796;53.136;14.882;2023-12-22T07:52:17;4.60;99.90
75210;DHT22;63796;53.136;14.882;2023-12-22T07:54:45;4.60;99.90
75210;DHT22;63796;53.136;14.882;2023-12-22T07:57:15;4.70;99.90
75210;DHT22;63796;53.136;14.882;2023-12-22T07:59:42;4.70;99.90
75210;DHT22;63796;53.136;14.882;2023-12-22T08:02:09;4.70;99.90
75210;DHT22;63796;53.136;14.882;2023-12-22T08:04:37;4.70;99.90
75210;DHT22;63796;53.136;14.882;2023-12-22T08:07:05;4.80;99.90
75210;DHT22;63796;53.136;14.882;2023-12-22T08:09:32;4.70;99.90
75210;DHT22;63796;53.136;14.882;2023-12-22T08:12:00;4.80;99.90
75210;DHT22;63796;53.136;14.882;2023-12-22T08:14:28;4.70;99.90
75210;DHT22;63796;53.136;14.882;2023-12-22T08:16:56;4.70;99.90
75210;DHT22;63796;53.136;14.882;2023-12-22T08:19:23;4.70;99.90
75210;DHT22;63796;53.136;14.882;2023-12-22T08:21:56;4.70;99.90
75210;DHT22;63796;53.136;14.882;2023-12-22T08:24:24;4.60;99.90
75210;DHT22;63796;53.136;14.882;2023-12-22T08:26:52;4.70;99.90
75210;DHT22;63796;53.136;14.882;2023-12-22T08:29:19;4.80;99.90
75210;DHT22;63796;53.136;14.882;2023-12-22T08:31:47;4.80;99.90
75210;DHT22;63796;53.136;14.882;2023-12-22T08:34:14;4.90;99.90
75210;DHT22;63796;53.136;14.882;2023-12-22T08:36:42;5.00;99.90
75210;DHT22;63796;53.136;14.882;2023-12-22T08:39:11;5.00;99.90
75210;DHT22;63796;53.136;14.882;2023-12-22T08:41:40;5.00;99.90
75210;DHT22;63796;53.136;14.882;2023-12-22T08:44:08;5.00;99.90
75210;DHT22;63796;53.136;14.882;2023-12-22T08:46:36;5.10;99.90
75210;DHT22;63796;53.136;14.882;2023-12-22T08:49:03;5.20;99.90
75210;DHT22;63796;53.136;14.882;2023-12-22T08:51:30;5.30;99.90
75210;DHT22;63796;53.136;14.882;2023-12-22T08:53:58;5.40;99.90
75210;DHT22;63796;53.136;14.882;2023-12-22T08:56:26;5.30;99.90
75210;DHT22;63796;53.136;14.882;2023-12-22T08:58:53;5.30;99.90
75210;DHT22;63796;53.136;14.882;2023-12-22T09:01:22;5.30;99.90
75210;DHT22;63796;53.136;14.882;2023-12-22T09:03:50;5.40;99.90
75210;DHT22;63796;53.136;14.882;2023-12-22T09:06:19;5.30;99.90
75210;DHT22;63796;53.136;14.882;2023-12-22T09:08:48;5.30;99.90
75210;DHT22;63796;53.136;14.882;2023-12-22T09:11:19;5.30;99.90
75210;DHT22;63796;53.136;14.882;2023-12-22T09:13:47;5.30;99.90
75210;DHT22;63796;53.136;14.882;2023-12-22T09:16:16;5.10;99.90
75210;DHT22;63796;53.136;14.882;2023-12-22T09:18:48;5.10;99.90
75210;DHT22;63796;53.136;14.882;2023-12-22T09:21:17;5.10;99.90
75210;DHT22;63796;53.136;14.882;2023-12-22T09:23:45;5.10;99.90
75210;DHT22;63796;53.136;14.882;2023-12-22T09:26:13;5.20;99.90
75210;DHT22;63796;53.136;14.882;2023-12-22T09:28:42;5.10;99.90
75210;DHT22;63796;53.136;14.882;2023-12-22T09:31:09;5.10;99.90
75210;DHT22;63796;53.136;14.882;2023-12-22T09:33:37;5.10;99.90
75210;DHT22;63796;53.136;14.882;2023-12-22T09:36:05;5.10;99.90
75210;DHT22;63796;53.136;14.882;2023-12-22T09:38:33;5.10;99.90
75210;DHT22;63796;53.136;14.882;2023-12-22T09:41:01;5.20;99.90
75210;DHT22;63796;53.136;14.882;2023-12-22T09:43:29;5.20;99.90
75210;DHT22;63796;53.136;14.882;2023-12-22T09:46:00;5.20;99.90
75210;DHT22;63796;53.136;14.882;2023-12-22T09:48:29;5.10;99.90
75210;DHT22;63796;53.136;14.882;2023-12-22T09:50:58;5.20;99.90
75210;DHT22;63796;53.136;14.882;2023-12-22T09:53:29;5.30;99.90
75210;DHT22;63796;53.136;14.882;2023-12-22T09:55:58;5.30;99.90
75210;DHT22;63796;53.136;14.882;2023-12-22T09:58:26;5.40;99.90
75210;DHT22;63796;53.136;14.882;2023-12-22T10:00:54;5.30;99.90
75210;DHT22;63796;53.136;14.882;2023-12-22T10:03:23;5.40;99.90
75210;DHT22;63796;53.136;14.882;2023-12-22T10:05:53;5.30;99.90
75210;DHT22;63796;53.136;14.882;2023-12-22T10:08:21;5.30;99.90
75210;DHT22;63796;53.136;14.882;2023-12-22T10:10:49;5.30;99.90
75210;DHT22;63796;53.136;14.882;2023-12-22T10:13:19;5.20;99.90
75210;DHT22;63796;53.136;14.882;2023-12-22T10:15:47;5.30;99.90
75210;DHT22;63796;53.136;14.882;2023-12-22T10:18:16;5.20;99.90
75210;DHT22;63796;53.136;14.882;2023-12-22T10:20:44;5.30;99.90
75210;DHT22;63796;53.136;14.882;2023-12-22T10:23:12;5.40;99.90
75210;DHT22;63796;53.136;14.882;2023-12-22T10:25:39;5.50;99.90
75210;DHT22;63796;53.136;14.882;2023-12-22T10:28:11;5.50;99.90
75210;DHT22;63796;53.136;14.882;2023-12-22T10:30:40;5.40;99.90
75210;DHT22;63796;53.136;14.882;2023-12-22T10:33:12;5.40;99.90
75210;DHT22;63796;53.136;14.882;2023-12-22T10:35:41;5.40;99.90
75210;DHT22;63796;53.136;14.882;2023-12-22T10:38:08;5.50;99.90
75210;DHT22;63796;53.136;14.882;2023-12-22T10:40:39;5.50;99.90
75210;DHT22;63796;53.136;14.882;2023-12-22T10:43:06;5.50;99.90
75210;DHT22;63796;53.136;14.882;2023-12-22T10:45:35;5.50;99.90
75210;DHT22;63796;53.136;14.882;2023-12-22T10:48:02;5.50;99.90
75210;DHT22;63796;53.136;14.882;2023-12-22T10:50:31;5.60;99.90
75210;DHT22;63796;53.136;14.882;2023-12-22T10:52:58;5.70;99.90
75210;DHT22;63796;53.136;14.882;2023-12-22T10:55:27;5.60;99.90
75210;DHT22;63796;53.136;14.882;2023-12-22T10:57:54;5.60;99.90
75210;DHT22;63796;53.136;14.882;2023-12-22T11:00:22;5.60;99.90
75210;DHT22;63796;53.136;14.882;2023-12-22T11:02:50;5.60;99.90
75210;DHT22;63796;53.136;14.882;2023-12-22T11:05:27;5.70;99.90
75210;DHT22;63796;53.136;14.882;2023-12-22T11:07:56;5.60;99.90
75210;DHT22;63796;53.136;14.882;2023-12-22T11:10:30;5.60;99.90
75210;DHT22;63796;53.136;14.882;2023-12-22T11:13:01;5.60;99.90
75210;DHT22;63796;53.136;14.882;2023-12-22T11:15:30;5.60;99.90
75210;DHT22;63796;53.136;14.882;2023-12-22T11:17:58;5.60;99.90
75210;DHT22;63796;53.136;14.882;2023-12-22T11:20:29;5.60;99.90
75210;DHT22;63796;53.136;14.882;2023-12-22T11:22:59;5.70;99.90
75210;DHT22;63796;53.136;14.882;2023-12-22T11:25:28;5.70;99.90
75210;DHT22;63796;53.136;14.882;2023-12-22T11:27:56;5.70;99.90
75210;DHT22;63796;53.136;14.882;2023-12-22T11:30:26;5.70;99.90
75210;DHT22;63796;53.136;14.882;2023-12-22T11:32:55;5.60;99.90
75210;DHT22;63796;53.136;14.882;2023-12-22T11:35:24;5.70;99.90
75210;DHT22;63796;53.136;14.882;2023-12-22T11:38:00;5.70;99.90
75210;DHT22;63796;53.136;14.882;2023-12-22T11:40:28;5.80;99.90
75210;DHT22;63796;53.136;14.882;2023-12-22T11:42:55;5.70;99.90
75210;DHT22;63796;53.136;14.882;2023-12-22T11:45:25;5.80;99.90
75210;DHT22;63796;53.136;14.882;2023-12-22T11:47:52;5.90;99.90
75210;DHT22;63796;53.136;14.882;2023-12-22T11:50:30;6.00;99.90
75210;DHT22;63796;53.136;14.882;2023-12-22T11:53:16;6.00;99.90
75210;DHT22;63796;53.136;14.882;2023-12-22T11:56:03;6.30;99.90
75210;DHT22;63796;53.136;14.882;2023-12-22T11:58:44;6.30;99.90
75210;DHT22;63796;53.136;14.882;2023-12-22T12:01:20;6.20;99.90
75210;DHT22;63796;53.136;14.882;2023-12-22T12:04:02;6.00;99.90
75210;DHT22;63796;53.136;14.882;2023-12-22T12:06:34;6.00;99.90
75210;DHT22;63796;53.136;14.882;2023-12-22T12:09:18;6.00;99.90
75210;DHT22;63796;53.136;14.882;2023-12-22T12:12:12;6.10;99.90
75210;DHT22;63796;53.136;14.882;2023-12-22T12:14:41;6.20;99.90
75210;DHT22;63796;53.136;14.882;2023-12-22T12:17:10;6.20;99.90
75210;DHT22;63796;53.136;14.882;2023-12-22T12:19:38;6.30;99.90
75210;DHT22;63796;53.136;14.882;2023-12-22T12:22:11;6.60;99.90
75210;DHT22;63796;53.136;14.882;2023-12-22T12:24:40;6.60;99.90
75210;DHT22;63796;53.136;14.882;2023-12-22T12:27:09;6.50;99.90
75210;DHT22;63796;53.136;14.882;2023-12-22T12:29:37;6.30;99.90
75210;DHT22;63796;53.136;14.882;2023-12-22T12:32:06;6.30;99.90
75210;DHT22;63796;53.136;14.882;2023-12-22T12:34:34;6.30;99.90
75210;DHT22;63796;53.136;14.882;2023-12-22T12:37:02;6.30;99.90
75210;DHT22;63796;53.136;14.882;2023-12-22T12:39:31;6.30;99.90
75210;DHT22;63796;53.136;14.882;2023-12-22T12:42:01;6.20;99.90
75210;DHT22;63796;53.136;14.882;2023-12-22T12:44:30;6.10;99.90
75210;DHT22;63796;53.136;14.882;2023-12-22T12:47:10;6.00;99.90
75210;DHT22;63796;53.136;14.882;2023-12-22T12:49:39;5.90;99.90
75210;DHT22;63796;53.136;14.882;2023-12-22T12:52:11;5.90;99.90
75210;DHT22;63796;53.136;14.882;2023-12-22T12:54:44;5.90;99.90
75210;DHT22;63796;53.136;14.882;2023-12-22T12:57:15;5.90;99.90
75210;DHT22;63796;53.136;14.882;2023-12-22T12:59:45;5.80;99.90
75210;DHT22;63796;53.136;14.882;2023-12-22T13:02:15;5.80;99.90
75210;DHT22;63796;53.136;14.882;2023-12-22T13:04:45;5.70;99.90
75210;DHT22;63796;53.136;14.882;2023-12-22T13:07:23;5.60;99.90
75210;DHT22;63796;53.136;14.882;2023-12-22T13:09:53;5.50;99.90
75210;DHT22;63796;53.136;14.882;2023-12-22T13:12:23;5.40;99.90
75210;DHT22;63796;53.136;14.882;2023-12-22T13:14:51;5.40;99.90
75210;DHT22;63796;53.136;14.882;2023-12-22T13:17:20;5.40;99.90
75210;DHT22;63796;53.136;14.882;2023-12-22T13:19:50;5.40;99.90
75210;DHT22;63796;53.136;14.882;2023-12-22T13:22:18;5.50;99.90
75210;DHT22;63796;53.136;14.882;2023-12-22T13:24:55;5.50;99.90
75210;DHT22;63796;53.136;14.882;2023-12-22T13:27:27;5.50;99.90
75210;DHT22;63796;53.136;14.882;2023-12-22T13:29:55;5.60;99.90
75210;DHT22;63796;53.136;14.882;2023-12-22T13:32:23;5.40;99.90
75210;DHT22;63796;53.136;14.882;2023-12-22T13:34:52;5.30;99.90
75210;DHT22;63796;53.136;14.882;2023-12-22T13:37:21;5.20;99.90
75210;DHT22;63796;53.136;14.882;2023-12-22T13:39:50;5.10;99.90
75210;DHT22;63796;53.136;14.882;2023-12-22T13:42:19;5.20;99.90
75210;DHT22;63796;53.136;14.882;2023-12-22T13:44:49;5.10;99.90
75210;DHT22;63796;53.136;14.882;2023-12-22T13:47:20;5.10;99.90
75210;DHT22;63796;53.136;14.882;2023-12-22T13:49:54;5.10;99.90
75210;DHT22;63796;53.136;14.882;2023-12-22T13:52:29;5.00;99.90
75210;DHT22;63796;53.136;14.882;2023-12-22T13:55:12;5.00;99.90
75210;DHT22;63796;53.136;14.882;2023-12-22T13:57:43;4.90;99.90
75210;DHT22;63796;53.136;14.882;2023-12-22T14:02:49;4.80;99.90
75210;DHT22;63796;53.136;14.882;2023-12-22T14:05:19;4.80;99.90
75210;DHT22;63796;53.136;14.882;2023-12-22T14:07:47;4.80;99.90
75210;DHT22;63796;53.136;14.882;2023-12-22T14:10:17;4.80;99.90
75210;DHT22;63796;53.136;14.882;2023-12-22T14:12:45;4.70;99.90
75210;DHT22;63796;53.136;14.882;2023-12-22T14:15:14;4.70;99.90
75210;DHT22;63796;53.136;14.882;2023-12-22T14:17:42;4.80;99.90
75210;DHT22;63796;53.136;14.882;2023-12-22T14:20:10;4.70;99.90
75210;DHT22;63796;53.136;14.882;2023-12-22T14:22:38;4.80;99.90
75210;DHT22;63796;53.136;14.882;2023-12-22T14:25:06;4.90;99.90
75210;DHT22;63796;53.136;14.882;2023-12-22T14:27:34;5.00;99.90
75210;DHT22;63796;53.136;14.882;2023-12-22T14:30:01;5.00;99.90
75210;DHT22;63796;53.136;14.882;2023-12-22T14:32:28;5.00;99.90
75210;DHT22;63796;53.136;14.882;2023-12-22T14:34:57;5.00;99.90
75210;DHT22;63796;53.136;14.882;2023-12-22T14:37:26;5.00;99.90
75210;DHT22;63796;53.136;14.882;2023-12-22T14:39:53;5.00;99.90
75210;DHT22;63796;53.136;14.882;2023-12-22T14:42:21;5.00;99.90
75210;DHT22;63796;53.136;14.882;2023-12-22T14:44:48;5.00;99.90
75210;DHT22;63796;53.136;14.882;2023-12-22T14:47:16;4.90;99.90
75210;DHT22;63796;53.136;14.882;2023-12-22T14:49:43;4.90;99.90
75210;DHT22;63796;53.136;14.882;2023-12-22T14:52:10;4.90;99.90
75210;DHT22;63796;53.136;14.882;2023-12-22T14:54:38;5.00;99.90
75210;DHT22;63796;53.136;14.882;2023-12-22T14:57:05;4.90;99.90
75210;DHT22;63796;53.136;14.882;2023-12-22T14:59:33;4.90;99.90
75210;DHT22;63796;53.136;14.882;2023-12-22T15:02:00;4.80;99.90
75210;DHT22;63796;53.136;14.882;2023-12-22T15:04:30;4.80;99.90
75210;DHT22;63796;53.136;14.882;2023-12-22T15:06:59;4.80;99.90
75210;DHT22;63796;53.136;14.882;2023-12-22T15:09:28;4.70;99.90
75210;DHT22;63796;53.136;14.882;2023-12-22T15:11:55;4.70;99.90
75210;DHT22;63796;53.136;14.882;2023-12-22T15:14:23;4.80;99.90
75210;DHT22;63796;53.136;14.882;2023-12-22T15:16:50;4.90;99.90
75210;DHT22;63796;53.136;14.882;2023-12-22T15:19:19;4.80;99.90
75210;DHT22;63796;53.136;14.882;2023-12-22T15:21:47;4.80;99.90
75210;DHT22;63796;53.136;14.882;2023-12-22T15:24:15;4.70;99.90
75210;DHT22;63796;53.136;14.882;2023-12-22T15:26:43;4.70;99.90
75210;DHT22;63796;53.136;14.882;2023-12-22T15:29:10;4.80;99.90
75210;DHT22;63796;53.136;14.882;2023-12-22T15:31:38;4.80;99.90
75210;DHT22;63796;53.136;14.882;2023-12-22T15:34:05;4.80;99.90
75210;DHT22;63796;53.136;14.882;2023-12-22T15:36:33;4.80;99.90
75210;DHT22;63796;53.136;14.882;2023-12-22T15:39:01;4.80;99.90
75210;DHT22;63796;53.136;14.882;2023-12-22T15:41:29;4.80;99.90
75210;DHT22;63796;53.136;14.882;2023-12-22T15:43:59;4.80;99.90
75210;DHT22;63796;53.136;14.882;2023-12-22T15:46:26;4.80;99.90